Time;durP1;ratioP1;P1;durP2;ratioP2;P2;SDS_P1;SDS_P2;PMS_P1;PMS_P2;Temp;Humidity;BMP_temperature;BMP_pressure;BME280_temperature;BME280_humidity;BME280_pressure;Samples;Min_cycle;Max_cycle;Signal;HPM_P1;HPM_P2
2023/03/10 06:41:42;;;;;;;24.60;11.77;;;;;;;1.58;100.00;-18070.25;5012079;23;20161;-87
2023/03/10 06:44:08;;;;;;;22.45;11.07;;;;;;;1.62;100.00;-18071.22;5004983;28;20176;-88
2023/03/10 06:46:33;;;;;;;25.58;13.50;;;;;;;1.65;100.00;-18071.91;4961302;28;20046;-88
2023/03/10 06:48:59;;;;;;;24.88;14.27;;;;;;;1.64;100.00;-18071.75;4894353;28;20055;-88
2023/03/10 06:51:27;;;;;;;26.98;14.23;;;;;;;1.66;100.00;-18072.31;4987506;23;20044;-87
2023/03/10 06:53:53;;;;;;;23.27;12.85;;;;;;;1.67;100.00;-18072.44;5026286;28;20049;-87
2023/03/10 06:56:42;;;;;;;24.15;12.60;;;;;;;1.69;100.00;-18073.16;5037806;28;20118;-88
2023/03/10 06:59:11;;;;;;;27.67;14.25;;;;;;;1.68;100.00;-18072.72;4976168;28;20053;-87
2023/03/10 07:01:59;;;;;;;27.92;14.27;;;;;;;1.68;100.00;-18072.72;4957705;28;20427;-87
2023/03/10 07:04:34;;;;;;;24.83;13.38;;;;;;;1.66;100.00;-18072.31;4865833;29;20045;-87
2023/03/10 07:06:59;;;;;;;25.17;14.00;;;;;;;1.69;100.00;-18073.16;4919015;29;20051;-87
2023/03/10 07:09:25;;;;;;;24.13;12.35;;;;;;;1.71;100.00;-18073.56;4931043;28;20040;-87
2023/03/10 07:11:50;;;;;;;24.50;13.45;;;;;;;1.71;100.00;-18073.56;4969067;28;20226;-87
2023/03/10 07:14:15;;;;;;;24.52;13.93;;;;;;;1.82;100.00;-18076.47;4986534;28;20042;-87
2023/03/10 07:17:01;;;;;;;22.05;12.32;;;;;;;1.79;100.00;-18075.78;4982644;28;20136;-87
2023/03/10 07:19:27;;;;;;;23.20;12.48;;;;;;;1.83;100.00;-18076.75;4981274;28;20485;-86
2023/03/10 07:21:52;;;;;;;21.00;10.68;;;;;;;1.83;100.00;-18076.75;4968393;28;20093;-87
2023/03/10 07:24:18;;;;;;;19.48;11.85;;;;;;;1.89;100.00;-18078.53;4978628;28;20146;-87
2023/03/10 07:26:44;;;;;;;15.85;8.65;;;;;;;1.91;100.00;-18079.09;4980851;28;20097;-87
2023/03/10 07:29:09;;;;;;;18.92;11.30;;;;;;;1.92;100.00;-18079.22;4979178;28;20042;-87
2023/03/10 07:31:36;;;;;;;17.90;8.65;;;;;;;1.93;100.00;-18079.66;4981679;28;20043;-87
2023/03/10 07:34:01;;;;;;;18.63;9.77;;;;;;;1.89;100.00;-18078.41;4983505;28;20442;-87
2023/03/10 07:36:33;;;;;;;19.73;11.77;;;;;;;1.88;100.00;-18078.25;4998799;28;20044;-87
2023/03/10 07:39:04;;;;;;;17.25;9.30;;;;;;;1.89;100.00;-18078.53;4968073;28;20045;-87
2023/03/10 07:41:29;;;;;;;18.05;10.30;;;;;;;1.89;100.00;-18078.53;5006404;28;20045;-87
2023/03/10 07:43:55;;;;;;;17.05;9.98;;;;;;;1.90;100.00;-18078.81;5002781;28;20041;-87
2023/03/10 07:46:21;;;;;;;17.73;9.55;;;;;;;1.92;100.00;-18079.38;5020129;28;20046;-87
2023/03/10 07:48:46;;;;;;;18.02;10.45;;;;;;;1.93;100.00;-18079.66;5001044;28;20056;-87
2023/03/10 07:51:12;;;;;;;18.88;11.00;;;;;;;1.95;100.00;-18080.19;5015471;28;20730;-87
2023/03/10 07:53:38;;;;;;;18.35;11.48;;;;;;;1.98;100.00;-18080.88;5017798;28;20137;-87
2023/03/10 07:56:08;;;;;;;17.70;11.02;;;;;;;1.95;100.00;-18080.06;4976633;28;20096;-87
2023/03/10 07:58:34;;;;;;;19.85;10.40;;;;;;;1.94;100.00;-18079.94;4945630;28;20047;-87
2023/03/10 08:00:59;;;;;;;17.58;10.80;;;;;;;1.94;100.00;-18079.78;4949728;28;20039;-87
2023/03/10 08:03:26;;;;;;;18.75;11.38;;;;;;;1.92;100.00;-18079.38;4945041;28;20495;-87
2023/03/10 08:05:52;;;;;;;19.27;11.55;;;;;;;1.93;100.00;-18079.66;4944103;28;20413;-87
2023/03/10 08:08:18;;;;;;;19.45;9.60;;;;;;;1.95;100.00;-18080.06;4942801;28;20047;-87
2023/03/10 08:10:43;;;;;;;19.55;12.18;;;;;;;1.96;100.00;-18080.47;4957640;28;20272;-87
2023/03/10 08:13:18;;;;;;;16.10;11.27;;;;;;;1.97;100.00;-18080.63;4941951;28;20089;-87
2023/03/10 08:15:43;;;;;;;19.30;11.55;;;;;;;1.98;100.00;-18080.88;4958850;28;20045;-87
2023/03/10 08:18:08;;;;;;;19.15;11.65;;;;;;;2.01;100.00;-18081.88;4955992;28;20038;-87
2023/03/10 08:20:34;;;;;;;16.40;10.93;;;;;;;2.03;100.00;-18082.41;4963015;28;20252;-87
2023/03/10 08:23:00;;;;;;;17.20;10.98;;;;;;;2.08;100.00;-18083.53;4978929;28;20109;-87
2023/03/10 08:25:51;;;;;;;18.15;11.25;;;;;;;2.18;100.00;-18086.44;4975792;28;20168;-86
2023/03/10 08:28:22;;;;;;;16.95;10.95;;;;;;;2.18;100.00;-18086.28;4943110;28;20043;-87
2023/03/10 08:30:54;;;;;;;20.00;10.50;;;;;;;2.17;100.00;-18086.00;4944199;28;20480;-87
2023/03/10 08:33:29;;;;;;;21.48;12.70;;;;;;;2.13;100.00;-18084.91;4927084;28;20037;-87
2023/03/10 08:36:22;;;;;;;21.15;11.80;;;;;;;2.18;100.00;-18086.28;4926008;28;20114;-89
2023/03/10 08:38:51;;;;;;;21.10;13.35;;;;;;;2.16;100.00;-18085.75;4941256;28;20039;-88
2023/03/10 08:41:18;;;;;;;;;;;;;;;2.18;100.00;-18086.28;4929540;28;20054;-89
2023/03/10 08:43:45;;;;;;;20.25;11.70;;;;;;;2.10;100.00;-18084.22;4959761;28;19914;-89
2023/03/10 08:46:19;;;;;;;19.45;11.02;;;;;;;2.15;100.00;-18085.47;4942877;28;20127;-89
2023/03/10 08:48:44;;;;;;;22.20;12.63;;;;;;;2.16;100.00;-18085.88;4962756;28;20130;-89
2023/03/10 08:51:11;;;;;;;20.38;12.18;;;;;;;2.20;100.00;-18086.84;4934316;28;20179;-88
2023/03/10 08:53:37;;;;;;;20.00;10.85;;;;;;;2.22;100.00;-18087.41;4980408;28;20047;-89
2023/03/10 08:56:06;;;;;;;19.35;10.23;;;;;;;2.25;100.00;-18088.22;4983163;28;20507;-88
2023/03/10 08:58:32;;;;;;;24.42;14.20;;;;;;;2.29;100.00;-18089.34;4987259;28;20670;-88
2023/03/10 09:00:58;;;;;;;23.90;13.50;;;;;;;2.29;100.00;-18089.34;5005877;28;20073;-88
2023/03/10 09:03:26;;;;;;;24.75;10.63;;;;;;;2.31;100.00;-18089.75;4978195;28;20043;-88
2023/03/10 09:06:01;;;;;;;21.75;12.73;;;;;;;2.32;100.00;-18090.03;4992255;28;20053;-87
2023/03/10 09:08:26;;;;;;;25.15;13.80;;;;;;;2.31;100.00;-18089.88;4988087;28;20213;-88
2023/03/10 09:10:51;;;;;;;24.25;13.57;;;;;;;2.31;100.00;-18089.75;4994550;28;20049;-88
2023/03/10 09:13:17;;;;;;;18.20;10.77;;;;;;;2.32;100.00;-18090.16;4986970;28;20049;-88
2023/03/10 09:15:42;;;;;;;26.00;12.75;;;;;;;2.35;100.00;-18090.84;4988448;28;20132;-88
2023/03/10 09:18:09;;;;;;;20.92;12.82;;;;;;;2.36;100.00;-18091.28;4987603;28;20129;-88
2023/03/10 09:20:35;;;;;;;23.90;13.13;;;;;;;2.36;100.00;-18091.28;4969076;28;20394;-88
2023/03/10 09:23:01;;;;;;;23.23;13.38;;;;;;;2.34;100.00;-18090.72;4933672;28;20517;-88
2023/03/10 09:25:26;;;;;;;28.92;13.98;;;;;;;2.37;100.00;-18091.41;4951932;28;20075;-88
2023/03/10 09:27:55;;;;;;;24.58;12.90;;;;;;;2.35;100.00;-18091.00;4949264;28;20055;-88
2023/03/10 09:30:20;;;;;;;20.23;12.13;;;;;;;2.35;100.00;-18091.00;4929153;28;20597;-87
2023/03/10 09:32:46;;;;;;;18.58;11.25;;;;;;;2.35;100.00;-18090.84;4931833;28;20362;-87
2023/03/10 09:35:11;;;;;;;21.05;11.48;;;;;;;2.36;100.00;-18091.28;4941840;28;20047;-87
2023/03/10 09:37:37;;;;;;;15.45;9.73;;;;;;;2.35;100.00;-18091.00;4947263;28;20086;-87
2023/03/10 09:40:04;;;;;;;18.65;10.93;;;;;;;2.35;100.00;-18091.00;4943754;28;20458;-87
2023/03/10 09:42:46;;;;;;;21.05;11.75;;;;;;;2.40;100.00;-18092.25;4945216;28;20134;-88
2023/03/10 09:45:21;;;;;;;18.10;10.82;;;;;;;2.41;100.00;-18092.50;4935357;28;20519;-87
2023/03/10 09:47:54;;;;;;;17.73;10.32;;;;;;;2.45;100.00;-18093.75;4973059;28;20056;-87
2023/03/10 09:50:27;;;;;;;15.38;9.48;;;;;;;2.44;100.00;-18093.47;5000696;28;20183;-87
2023/03/10 09:53:11;;;;;;;19.70;10.90;;;;;;;2.47;100.00;-18094.16;5002439;28;20143;-87
2023/03/10 09:55:40;;;;;;;16.10;8.13;;;;;;;2.52;100.00;-18095.41;5002437;28;20394;-87
2023/03/10 09:58:12;;;;;;;17.65;9.55;;;;;;;2.52;100.00;-18095.56;5019519;28;20038;-88
2023/03/10 10:00:42;;;;;;;19.58;12.10;;;;;;;2.54;100.00;-18096.09;5005459;28;20057;-87
2023/03/10 10:03:20;;;;;;;17.75;10.68;;;;;;;2.63;100.00;-18098.47;5003937;28;20137;-87
2023/03/10 10:05:48;;;;;;;17.45;11.00;;;;;;;2.69;100.00;-18100.13;5014440;28;20046;-87
2023/03/10 10:08:46;;;;;;;16.92;9.45;;;;;;;2.72;100.00;-18100.94;4998511;28;20406;-88
2023/03/10 10:11:16;;;;;;;16.58;10.43;;;;;;;2.78;100.00;-18102.59;4999811;28;20049;-87
2023/03/10 10:13:42;;;;;;;16.30;10.48;;;;;;;2.82;100.00;-18103.72;4997898;28;20445;-87
2023/03/10 10:16:39;;;;;;;15.68;8.70;;;;;;;2.94;100.00;-18107.03;5005577;28;20302;-88
2023/03/10 10:19:20;;;;;;;15.32;10.52;;;;;;;2.96;100.00;-18107.31;5004666;28;20108;-87
2023/03/10 10:21:45;;;;;;;14.15;9.10;;;;;;;2.99;100.00;-18108.28;5007265;28;20073;-87
2023/03/10 10:24:12;;;;;;;15.73;9.30;;;;;;;2.99;100.00;-18108.28;5000631;28;20042;-87
2023/03/10 10:26:37;;;;;;;14.25;9.05;;;;;;;3.04;100.00;-18109.53;5006110;28;20046;-87
2023/03/10 10:29:50;;;;;;;14.07;9.85;;;;;;;3.04;100.00;-18109.66;5018617;28;20042;-88
2023/03/10 10:32:21;;;;;;;13.55;9.15;;;;;;;3.06;100.00;-18110.22;5011543;28;20100;-87
2023/03/10 10:34:48;;;;;;;14.18;9.73;;;;;;;3.12;100.00;-18111.72;4977125;28;20419;-88
2023/03/10 10:37:41;;;;;;;13.10;8.68;;;;;;;3.18;100.00;-18113.38;4965876;28;20039;-87
2023/03/10 10:40:29;;;;;;;13.88;8.75;;;;;;;3.27;100.00;-18115.75;4954983;28;20114;-87
2023/03/10 10:42:57;;;;;;;14.88;10.50;;;;;;;3.34;100.00;-18117.81;4939210;28;20114;-87
2023/03/10 10:45:29;;;;;;;12.75;8.95;;;;;;;3.47;100.00;-18121.28;4961814;28;20196;-87
2023/03/10 10:47:55;;;;;;;12.13;8.88;;;;;;;3.48;100.00;-18121.56;4948345;28;20035;-87
2023/03/10 10:50:41;;;;;;;13.02;9.45;;;;;;;3.51;100.00;-18122.38;4950727;28;20047;-87
2023/03/10 10:53:12;;;;;;;14.57;10.30;;;;;;;3.47;100.00;-18121.13;4967265;28;20110;-87
2023/03/10 10:55:47;;;;;;;13.48;9.57;;;;;;;3.51;100.00;-18122.38;4950840;28;20062;-87
2023/03/10 10:58:50;;;;;;;14.98;10.88;;;;;;;3.48;100.00;-18121.41;4901442;28;20055;-87
2023/03/10 11:01:15;;;;;;;17.80;11.32;;;;;;;3.44;100.00;-18120.44;4978134;23;21165;-87
2023/03/10 11:03:49;;;;;;;17.92;12.38;;;;;;;3.45;100.00;-18120.56;5043734;28;20049;-87
2023/03/10 11:06:23;;;;;;;16.17;11.90;;;;;;;3.50;100.00;-18121.97;5055901;28;20068;-85
2023/03/10 11:08:49;;;;;;;14.75;9.85;;;;;;;3.55;100.00;-18123.34;5044741;28;20059;-85
2023/03/10 11:11:17;;;;;;;14.30;9.73;;;;;;;3.55;100.00;-18123.34;5057418;28;20124;-85
2023/03/10 11:13:54;;;;;;;14.43;10.05;;;;;;;3.55;100.00;-18123.34;5032358;28;20052;-85
2023/03/10 11:16:35;;;;;;;13.13;8.95;;;;;;;3.55;100.00;-18123.34;5044902;28;20045;-85
2023/03/10 11:19:33;;;;;;;13.45;9.50;;;;;;;3.64;100.00;-18125.84;5027637;28;20034;-88
2023/03/10 11:22:37;;;;;;;12.60;8.30;;;;;;;3.66;100.00;-18126.38;4982590;28;20099;-87
2023/03/10 11:25:43;;;;;;;13.52;8.85;;;;;;;3.65;100.00;-18126.09;4994126;28;20049;-87
2023/03/10 11:28:35;;;;;;;12.15;8.73;;;;;;;3.68;100.00;-18126.94;4964282;28;20056;-87
2023/03/10 11:31:18;;;;;;;15.38;10.68;;;;;;;3.64;100.00;-18125.84;5012646;28;20123;-88
2023/03/10 11:34:06;;;;;;;20.85;16.58;;;;;;;3.65;100.00;-18126.09;5003770;28;20102;-87
2023/03/10 11:37:23;;;;;;;18.75;14.02;;;;;;;3.70;100.00;-18127.50;4979520;28;20046;-87
2023/03/10 11:40:23;;;;;;;27.35;18.63;;;;;;;3.81;100.00;-18130.53;4946632;28;20178;-85
2023/03/10 11:43:25;;;;;;;18.92;12.75;;;;;;;3.82;100.00;-18130.66;5007274;28;20084;-85
2023/03/10 11:46:05;;;;;;;25.25;19.58;;;;;;;3.83;100.00;-18130.94;4921402;28;20047;-85
2023/03/10 11:49:08;;;;;;;29.27;18.42;;;;;;;3.79;100.00;-18129.97;4952447;28;20173;-85
2023/03/10 11:51:49;;;;;;;19.45;11.93;;;;;;;3.79;100.00;-18129.84;4918587;29;20210;-84
2023/03/10 11:54:34;;;;;;;22.70;16.08;;;;;;;3.77;100.00;-18129.44;4933285;28;20073;-85
2023/03/10 11:57:03;;;;;;;32.78;24.20;;;;;;;3.74;100.00;-18128.59;4899583;29;20122;-85
2023/03/10 11:59:38;;;;;;;24.42;18.83;;;;;;;3.76;100.00;-18129.16;4940138;28;20574;-86
2023/03/10 12:02:12;;;;;;;26.35;19.45;;;;;;;3.79;100.00;-18129.84;4930769;28;20052;-86
2023/03/10 12:04:49;;;;;;;17.27;13.65;;;;;;;3.82;100.00;-18130.66;4926164;29;20060;-85
2023/03/10 12:07:26;;;;;;;19.42;13.73;;;;;;;3.84;100.00;-18131.34;4930425;28;20482;-85
2023/03/10 12:09:56;;;;;;;21.52;13.32;;;;;;;3.81;100.00;-18130.53;4936136;28;20246;-86
2023/03/10 12:12:35;;;;;;;25.10;16.42;;;;;;;3.79;100.00;-18129.84;4917175;28;20129;-85
2023/03/10 12:15:21;;;;;;;20.67;14.00;;;;;;;3.78;100.00;-18129.69;4908587;29;20122;-85
2023/03/10 12:17:56;;;;;;;24.50;16.90;;;;;;;3.83;100.00;-18131.09;4967009;28;20070;-85
2023/03/10 12:20:30;;;;;;;26.98;19.15;;;;;;;3.90;100.00;-18132.88;5024788;28;20112;-85
2023/03/10 12:23:10;;;;;;;27.45;17.60;;;;;;;3.89;100.00;-18132.59;5010200;28;20452;-85
2023/03/10 12:25:38;;;;;;;21.13;14.50;;;;;;;3.87;100.00;-18131.91;5013217;28;20052;-86
2023/03/10 12:28:16;;;;;;;24.60;15.60;;;;;;;3.84;100.00;-18131.34;5032478;28;20580;-85
2023/03/10 12:30:49;;;;;;;19.05;13.43;;;;;;;3.83;100.00;-18130.94;5048883;28;20038;-85
2023/03/10 12:33:33;;;;;;;27.27;18.35;;;;;;;3.86;100.00;-18131.78;5045981;28;20025;-86
2023/03/10 12:36:31;;;;;;;18.20;14.30;;;;;;;3.90;100.00;-18132.75;5019200;28;20496;-85
2023/03/10 12:39:29;;;;;;;36.58;27.25;;;;;;;3.87;100.00;-18132.03;5023303;28;20057;-85
2023/03/10 12:42:02;;;;;;;38.45;26.77;;;;;;;3.93;100.00;-18133.56;4989268;28;20048;-86
2023/03/10 12:44:43;;;;;;;19.95;14.35;;;;;;;4.09;100.00;-18138.00;5002452;28;20571;-85
2023/03/10 12:47:27;;;;;;;22.25;14.77;;;;;;;4.19;100.00;-18140.75;4999338;28;20044;-86
2023/03/10 12:50:00;;;;;;;17.30;12.40;;;;;;;4.20;100.00;-18141.03;5004999;28;20115;-86
2023/03/10 12:52:43;;;;;;;24.02;13.27;;;;;;;4.11;100.00;-18138.53;5016240;28;20061;-85
2023/03/10 12:55:39;;;;;;;18.00;12.48;;;;;;;4.10;100.00;-18138.25;5002126;28;20045;-85
2023/03/10 12:58:17;;;;;;;18.48;10.07;;;;;;;4.07;100.00;-18137.56;5015309;28;20075;-85
2023/03/10 13:00:57;;;;;;;25.13;14.40;;;;;;;4.03;100.00;-18136.47;5019528;28;20063;-85
2023/03/10 13:03:28;;;;;;;18.63;12.93;;;;;;;3.99;100.00;-18135.22;5002791;28;20129;-85
2023/03/10 13:06:06;;;;;;;17.98;10.48;;;;;;;3.97;100.00;-18134.66;5002575;28;20099;-85
2023/03/10 13:08:38;;;;;;;11.35;9.10;;;;;;;3.95;100.00;-18134.13;4983895;28;20147;-86
2023/03/10 13:11:15;;;;;;;9.90;7.55;;;;;;;3.97;100.00;-18134.66;5006735;28;20040;-86
2023/03/10 13:13:40;;;;;;;12.68;9.02;;;;;;;3.92;100.00;-18133.28;4977509;28;20991;-86
2023/03/10 13:16:07;;;;;;;13.43;12.02;;;;;;;3.93;100.00;-18133.72;4966277;28;20573;-85
2023/03/10 13:18:34;;;;;;;19.52;12.18;;;;;;;3.91;100.00;-18133.00;5003937;28;20050;-86
2023/03/10 13:21:00;;;;;;;16.15;11.07;;;;;;;3.90;100.00;-18132.75;4983085;28;20030;-86
2023/03/10 13:23:34;;;;;;;13.07;9.88;;;;;;;3.84;100.00;-18131.34;4986145;28;20063;-85
2023/03/10 13:26:13;;;;;;;14.80;10.55;;;;;;;3.92;100.00;-18133.28;4986558;28;20133;-85
2023/03/10 13:28:38;;;;;;;16.33;10.85;;;;;;;3.90;100.00;-18132.75;4978360;28;20219;-85
2023/03/10 13:31:13;;;;;;;16.73;10.90;;;;;;;3.93;100.00;-18133.56;5002870;28;20397;-86
2023/03/10 13:33:39;;;;;;;12.52;8.80;;;;;;;3.91;100.00;-18133.00;5012930;28;20041;-86
2023/03/10 13:36:20;;;;;;;14.85;9.80;;;;;;;3.80;100.00;-18130.25;4998955;28;20046;-86
2023/03/10 13:39:18;;;;;;;13.52;9.52;;;;;;;3.90;100.00;-18132.88;5001494;28;20557;-86
2023/03/10 13:41:46;;;;;;;14.05;9.15;;;;;;;3.84;100.00;-18131.22;4967023;28;20061;-86
2023/03/10 13:44:28;;;;;;;10.35;6.60;;;;;;;3.79;100.00;-18129.97;4979476;28;20054;-86
2023/03/10 13:46:57;;;;;;;9.80;7.45;;;;;;;3.74;100.00;-18128.59;4979712;28;20072;-86
2023/03/10 13:49:30;;;;;;;13.13;9.98;;;;;;;3.74;100.00;-18128.59;4982512;28;20460;-85
2023/03/10 13:51:58;;;;;;;15.43;10.77;;;;;;;3.72;100.00;-18128.03;5003168;28;20042;-85
2023/03/10 13:54:27;;;;;;;11.38;8.48;;;;;;;3.74;100.00;-18128.59;4999233;28;20486;-86
2023/03/10 13:57:01;;;;;;;15.35;10.82;;;;;;;3.68;100.00;-18126.94;4997470;28;20058;-86
2023/03/10 13:59:29;;;;;;;19.90;13.10;;;;;;;3.74;100.00;-18128.59;4983298;28;20065;-86
2023/03/10 14:01:57;;;;;;;15.55;10.95;;;;;;;3.74;100.00;-18128.59;4986306;28;20068;-86
2023/03/10 14:04:41;;;;;;;9.88;7.63;;;;;;;3.66;100.00;-18126.25;5006185;28;20694;-86
2023/03/10 14:07:09;;;;;;;8.80;7.50;;;;;;;3.64;100.00;-18125.69;4988223;28;20123;-86
2023/03/10 14:09:35;;;;;;;9.90;8.17;;;;;;;3.60;100.00;-18124.72;4988517;28;20447;-86
2023/03/10 14:12:00;;;;;;;10.70;8.23;;;;;;;3.61;100.00;-18125.00;5001258;28;20037;-86
2023/03/10 14:14:37;;;;;;;10.55;8.60;;;;;;;3.56;100.00;-18123.75;5007119;28;20140;-86
2023/03/10 14:17:07;;;;;;;10.10;7.57;;;;;;;3.45;100.00;-18120.72;5000336;28;20034;-87
2023/03/10 14:19:42;;;;;;;16.60;11.75;;;;;;;3.45;100.00;-18120.72;5022011;28;20295;-87
2023/03/10 14:22:26;;;;;;;15.40;11.93;;;;;;;3.43;100.00;-18120.16;5027619;28;20041;-86
2023/03/10 14:24:51;;;;;;;20.80;13.05;;;;;;;3.41;100.00;-18119.47;5007454;28;20049;-87
2023/03/10 14:27:17;;;;;;;20.55;14.45;;;;;;;3.34;100.00;-18117.69;5005584;28;20076;-87
2023/03/10 14:29:48;;;;;;;13.20;10.38;;;;;;;3.32;100.00;-18117.25;4984817;28;20421;-87
2023/03/10 14:32:16;;;;;;;17.27;11.65;;;;;;;3.32;100.00;-18117.13;4977620;28;20049;-87
2023/03/10 14:34:41;;;;;;;17.83;12.15;;;;;;;3.32;100.00;-18117.25;4988545;28;20414;-86
2023/03/10 14:37:13;;;;;;;13.02;9.43;;;;;;;3.25;100.00;-18115.31;4977382;28;20048;-86
2023/03/10 14:39:39;;;;;;;17.05;11.52;;;;;;;3.24;100.00;-18115.06;4994863;28;20093;-86
2023/03/10 14:42:05;;;;;;;19.42;13.95;;;;;;;3.22;100.00;-18114.50;5021842;28;20124;-87
2023/03/10 14:44:31;;;;;;;10.40;7.57;;;;;;;3.16;100.00;-18112.84;4977974;28;20089;-87
2023/03/10 14:46:57;;;;;;;10.40;8.15;;;;;;;3.14;100.00;-18112.44;4988958;28;20116;-87
2023/03/10 14:49:24;;;;;;;12.45;8.70;;;;;;;3.14;100.00;-18112.28;4986431;28;20058;-86
2023/03/10 14:51:50;;;;;;;27.35;15.38;;;;;;;3.11;100.00;-18111.59;4987726;28;20116;-87
2023/03/10 14:54:23;;;;;;;48.92;24.60;;;;;;;3.09;100.00;-18110.91;4985374;28;20584;-86
2023/03/10 14:56:57;;;;;;;11.68;8.32;;;;;;;3.10;100.00;-18111.31;5007367;28;20052;-86
2023/03/10 14:59:26;;;;;;;11.35;8.45;;;;;;;3.09;100.00;-18110.91;5022496;28;20489;-87
2023/03/10 15:01:51;;;;;;;19.57;13.57;;;;;;;2.99;100.00;-18108.13;5012691;28;20083;-86
2023/03/10 15:04:17;;;;;;;12.77;9.63;;;;;;;2.95;100.00;-18107.16;4984706;28;20383;-87
2023/03/10 15:06:43;;;;;;;10.82;8.00;;;;;;;2.89;100.00;-18105.50;4997750;28;20073;-87
2023/03/10 15:09:09;;;;;;;13.18;9.75;;;;;;;2.85;100.00;-18104.53;5009023;28;20042;-87
2023/03/10 15:11:35;;;;;;;16.02;12.40;;;;;;;2.87;100.00;-18105.09;5000625;28;20042;-87
2023/03/10 15:14:01;;;;;;;15.35;11.73;;;;;;;2.84;100.00;-18104.13;5015375;28;20037;-87
2023/03/10 15:16:26;;;;;;;31.58;23.13;;;;;;;2.80;100.00;-18103.03;5030026;28;20512;-86
2023/03/10 15:18:52;;;;;;;17.05;11.82;;;;;;;2.82;100.00;-18103.72;5034376;28;20417;-86
2023/03/10 15:21:18;;;;;;;11.60;8.52;;;;;;;2.70;100.00;-18100.41;5015933;28;20041;-86
2023/03/10 15:23:44;;;;;;;11.35;8.05;;;;;;;2.67;100.00;-18099.56;5032767;28;20053;-86
2023/03/10 15:26:12;;;;;;;9.80;8.70;;;;;;;2.68;100.00;-18099.97;5012138;28;20056;-89
2023/03/10 15:28:38;;;;;;;11.55;8.95;;;;;;;2.59;100.00;-18097.50;5031909;28;20048;-87
2023/03/10 15:31:05;;;;;;;11.60;8.18;;;;;;;2.48;100.00;-18094.44;5017125;28;20037;-86
2023/03/10 15:33:36;;;;;;;10.00;8.02;;;;;;;2.50;100.00;-18095.00;5033414;28;20142;-86
2023/03/10 15:36:02;;;;;;;14.63;11.45;;;;;;;2.52;100.00;-18095.41;5018955;28;20462;-87
2023/03/10 15:38:27;;;;;;;15.23;11.05;;;;;;;2.46;100.00;-18094.03;5007522;28;20470;-88
2023/03/10 15:40:53;;;;;;;8.95;7.38;;;;;;;2.36;100.00;-18091.28;5007536;28;20173;-86
2023/03/10 15:43:18;;;;;;;15.43;12.70;;;;;;;2.34;100.00;-18090.72;5014944;28;20042;-86
2023/03/10 15:45:49;;;;;;;8.95;7.90;;;;;;;2.27;100.00;-18088.78;5030362;28;20184;-86
2023/03/10 15:48:15;;;;;;;12.13;9.27;;;;;;;2.25;100.00;-18088.38;5006673;28;20045;-87
2023/03/10 15:50:42;;;;;;;13.45;9.75;;;;;;;2.16;100.00;-18085.75;5017170;28;20069;-88
2023/03/10 15:53:08;;;;;;;12.82;10.85;;;;;;;2.07;100.00;-18083.38;5010954;28;20497;-88
2023/03/10 15:55:35;;;;;;;13.20;10.70;;;;;;;1.96;100.00;-18080.47;5009528;28;20124;-87
2023/03/10 15:58:00;;;;;;;14.70;10.23;;;;;;;1.91;100.00;-18079.09;5007690;28;20042;-86
2023/03/10 16:00:26;;;;;;;19.10;13.57;;;;;;;1.81;100.00;-18076.31;4984048;28;20042;-87
2023/03/10 16:02:52;;;;;;;16.15;11.65;;;;;;;1.56;100.00;-18069.69;4977871;28;20046;-87
2023/03/10 16:05:18;;;;;;;17.95;12.60;;;;;;;1.40;100.00;-18065.13;4993657;28;20085;-86
2023/03/10 16:07:43;;;;;;;18.63;13.10;;;;;;;1.28;100.00;-18062.06;4974181;28;20104;-86
2023/03/10 16:10:11;;;;;;;42.85;28.23;;;;;;;1.13;100.00;-18058.06;4975934;28;20264;-85
2023/03/10 16:12:36;;;;;;;29.38;19.35;;;;;;;1.01;100.00;-18054.75;4977183;28;20136;-88
2023/03/10 16:15:02;;;;;;;49.72;31.08;;;;;;;0.92;100.00;-18052.25;4975024;28;20042;-85
2023/03/10 16:17:28;;;;;;;33.42;21.05;;;;;;;0.85;100.00;-18050.44;4977707;28;20049;-85
2023/03/10 16:19:54;;;;;;;15.90;11.55;;;;;;;0.71;100.00;-18046.44;4997622;28;20038;-85
2023/03/10 16:22:19;;;;;;;18.52;13.60;;;;;;;0.65;100.00;-18045.03;4993323;28;20121;-86
2023/03/10 16:24:44;;;;;;;18.20;13.18;;;;;;;0.64;100.00;-18044.75;5010970;28;20453;-86
2023/03/10 16:27:10;;;;;;;17.02;11.68;;;;;;;0.55;100.00;-18042.28;5014809;28;20116;-86
2023/03/10 16:29:39;;;;;;;18.40;12.38;;;;;;;0.53;100.00;-18041.59;5026631;28;20052;-85
2023/03/10 16:32:08;;;;;;;17.63;12.43;;;;;;;0.49;100.00;-18040.47;5009321;28;20411;-85
2023/03/10 16:34:34;;;;;;;19.92;14.18;;;;;;;0.45;100.00;-18039.50;5008857;28;20235;-86
2023/03/10 16:37:01;;;;;;;18.75;13.98;;;;;;;0.45;100.00;-18039.50;5023093;28;20041;-84
2023/03/10 16:39:29;;;;;;;18.02;13.70;;;;;;;0.40;100.00;-18038.25;5008274;28;20469;-86
2023/03/10 16:41:56;;;;;;;19.33;13.57;;;;;;;0.39;100.00;-18037.84;5024646;28;20040;-85
2023/03/10 16:44:22;;;;;;;21.02;14.05;;;;;;;0.35;100.00;-18036.88;5021180;28;20045;-85
2023/03/10 16:47:00;;;;;;;21.92;14.30;;;;;;;0.37;100.00;-18037.41;5003679;28;20493;-85
2023/03/10 16:49:25;;;;;;;19.73;11.80;;;;;;;0.34;100.00;-18036.59;5019918;28;20057;-85
2023/03/10 16:51:51;;;;;;;19.77;13.43;;;;;;;0.33;100.00;-18036.19;5005147;28;20363;-86
2023/03/10 16:54:19;;;;;;;14.52;8.57;;;;;;;0.35;100.00;-18036.72;5005294;28;20053;-85
2023/03/10 16:56:47;;;;;;;18.08;12.88;;;;;;;0.30;100.00;-18035.47;5004242;28;20068;-85
2023/03/10 16:59:14;;;;;;;20.77;13.82;;;;;;;0.26;100.00;-18034.38;4992923;28;20056;-85
2023/03/10 17:01:50;;;;;;;21.20;14.10;;;;;;;0.32;100.00;-18036.03;5018753;28;20052;-86
2023/03/10 17:04:15;;;;;;;18.88;12.60;;;;;;;0.25;100.00;-18034.09;5004511;28;20442;-85
2023/03/10 17:06:41;;;;;;;19.33;14.48;;;;;;;0.25;100.00;-18033.97;4985326;28;20050;-84
2023/03/10 17:09:09;;;;;;;20.45;13.50;;;;;;;0.25;100.00;-18033.97;5020646;28;20053;-84
2023/03/10 17:11:37;;;;;;;19.17;14.00;;;;;;;0.24;100.00;-18033.81;5019670;28;20053;-84
2023/03/10 17:14:06;;;;;;;17.73;12.95;;;;;;;0.27;100.00;-18034.50;4987930;28;20061;-84
2023/03/10 17:16:32;;;;;;;;;;;;;;;0.21;100.00;-18033.13;5008160;28;20400;-84
2023/03/10 17:19:01;;;;;;;14.25;10.32;;;;;;;0.13;100.00;-18030.91;5022934;28;19976;-83
2023/03/10 17:21:28;;;;;;;11.77;7.47;;;;;;;0.15;100.00;-18031.34;5000360;28;20132;-84
2023/03/10 17:23:54;;;;;;;12.15;8.35;;;;;;;0.13;100.00;-18030.78;5001255;28;20099;-84
2023/03/10 17:26:20;;;;;;;15.13;10.38;;;;;;;0.13;100.00;-18030.78;5019878;28;20561;-83
2023/03/10 17:28:47;;;;;;;15.15;9.05;;;;;;;0.19;100.00;-18032.56;5005861;28;20044;-86
2023/03/10 17:31:25;;;;;;;15.85;10.63;;;;;;;0.16;100.00;-18031.75;5021952;28;20041;-83
2023/03/10 17:33:51;;;;;;;12.63;8.13;;;;;;;0.12;100.00;-18030.50;5004033;28;20048;-84
2023/03/10 17:36:33;;;;;;;14.65;9.90;;;;;;;0.13;100.00;-18030.78;5010468;28;20037;-84
2023/03/10 17:39:00;;;;;;;13.65;9.57;;;;;;;0.08;100.00;-18029.38;5033568;28;20029;-83
2023/03/10 17:41:27;;;;;;;18.00;10.82;;;;;;;0.06;100.00;-18028.97;5005230;28;20126;-84
2023/03/10 17:43:52;;;;;;;17.15;10.65;;;;;;;0.11;100.00;-18030.34;5031092;28;20048;-83
2023/03/10 17:46:20;;;;;;;16.75;12.32;;;;;;;0.08;100.00;-18029.38;5030220;28;20041;-83
2023/03/10 17:48:50;;;;;;;21.98;17.17;;;;;;;0.03;100.00;-18028.00;5028472;28;20037;-83
2023/03/10 17:53:52;;;;;;;15.98;9.75;;;;;;;0.03;100.00;-18028.00;5349624;22;20526;-91
2023/03/10 17:56:18;;;;;;;18.90;11.68;;;;;;;0.06;100.00;-18028.84;5066015;28;20045;-91
2023/03/10 17:58:43;;;;;;;15.55;10.75;;;;;;;0.01;100.00;-18027.59;5046600;28;20070;-91
2023/03/10 18:01:17;;;;;;;19.38;12.65;;;;;;;-0.02;100.00;-18026.75;5050570;28;20060;-90
2023/03/10 18:03:48;;;;;;;17.45;10.90;;;;;;;0.02;100.00;-18027.88;5047542;28;20051;-90
2023/03/10 18:06:25;;;;;;;16.73;10.68;;;;;;;0.02;100.00;-18027.88;5034909;28;20104;-91
2023/03/10 18:08:51;;;;;;;20.23;10.35;;;;;;;0.00;100.00;-18027.31;5054055;28;20217;-90
2023/03/10 18:11:18;;;;;;;19.13;12.05;;;;;;;-0.04;100.00;-18026.19;5039025;28;20500;-91
2023/03/10 18:13:44;;;;;;;18.88;12.75;;;;;;;-0.02;100.00;-18026.91;5058755;28;20060;-89
2023/03/10 18:16:26;;;;;;;21.55;12.20;;;;;;;-0.02;100.00;-18026.91;5061845;28;20037;-90